createdAt,value
2019-03-10T00:00:32.192Z,7.00
2019-03-10T00:03:01.580Z,8.33
2019-03-10T00:05:31.530Z,5.90
2019-03-10T00:08:01.171Z,7.30
2019-03-10T00:10:30.560Z,8.95
2019-03-10T00:12:59.953Z,8.78
2019-03-10T00:15:29.348Z,9.20
2019-03-10T00:17:58.717Z,6.75
2019-03-10T00:20:28.160Z,3.27
2019-03-10T00:22:57.527Z,4.12
2019-03-10T00:25:26.915Z,11.60
2019-03-10T00:27:56.313Z,6.00
2019-03-10T00:30:25.684Z,12.40
2019-03-10T00:32:55.072Z,8.08
2019-03-10T00:35:24.449Z,5.47
2019-03-10T00:37:53.822Z,7.10
2019-03-10T00:41:02.102Z,6.67
2019-03-10T00:44:17.060Z,7.65
2019-03-10T00:47:24.949Z,6.53
2019-03-10T00:50:17.082Z,5.33
2019-03-10T00:52:57.462Z,8.63
2019-03-10T00:55:26.881Z,9.00
2019-03-10T00:57:56.679Z,8.08
2019-03-10T01:00:26.207Z,6.95
2019-03-10T01:02:55.574Z,9.75
2019-03-10T01:05:24.940Z,10.33
2019-03-10T01:07:55.078Z,8.60
2019-03-10T01:10:24.443Z,4.95
2019-03-10T01:12:53.878Z,9.75
2019-03-10T01:15:23.264Z,6.70
2019-03-10T01:17:53.743Z,7.67
2019-03-10T01:20:23.112Z,7.30
2019-03-10T01:22:52.495Z,7.67
2019-03-10T01:25:21.870Z,6.50
2019-03-10T01:27:51.236Z,7.10
2019-03-10T01:30:21.544Z,6.63
2019-03-10T01:33:21.161Z,8.95
2019-03-10T01:35:50.537Z,7.05
2019-03-10T01:38:20.001Z,8.15
2019-03-10T01:40:49.377Z,9.33
2019-03-10T01:43:18.755Z,6.37
2019-03-10T01:45:48.327Z,10.50
2019-03-10T01:48:17.696Z,11.57
2019-03-10T01:50:47.709Z,7.40
2019-03-10T01:53:25.202Z,6.92
2019-03-10T01:55:48.514Z,7.50
2019-03-10T01:58:17.901Z,6.60
2019-03-10T02:00:47.266Z,7.33
2019-03-10T02:03:16.648Z,5.92
2019-03-10T02:05:46.049Z,8.10
2019-03-10T02:08:15.411Z,5.15
2019-03-10T02:10:44.791Z,5.58
2019-03-10T02:13:14.364Z,7.65
2019-03-10T02:15:43.751Z,5.62
2019-03-10T02:18:13.139Z,8.68
2019-03-10T02:20:42.507Z,7.97
2019-03-10T02:23:11.879Z,4.45
2019-03-10T02:25:41.244Z,6.85
2019-03-10T02:28:10.958Z,8.00
2019-03-10T02:30:40.336Z,7.58
2019-03-10T02:33:09.703Z,8.73
2019-03-10T02:35:39.318Z,7.30
2019-03-10T02:38:08.696Z,4.83
2019-03-10T02:40:38.069Z,6.15
2019-03-10T02:43:07.459Z,3.60
2019-03-10T02:45:36.887Z,8.10
2019-03-10T02:48:06.706Z,7.37
2019-03-10T02:50:36.119Z,7.33
2019-03-10T02:53:05.471Z,8.73
2019-03-10T02:55:34.832Z,7.30
2019-03-10T02:58:04.302Z,6.33
2019-03-10T03:00:33.707Z,7.53
2019-03-10T03:03:03.071Z,4.87
2019-03-10T03:05:32.463Z,6.62
2019-03-10T03:08:01.816Z,7.75
2019-03-10T03:10:31.194Z,8.58
2019-03-10T03:13:00.563Z,6.10
2019-03-10T03:15:29.939Z,6.20
2019-03-10T03:17:59.300Z,5.87
2019-03-10T03:20:28.978Z,5.25
2019-03-10T03:22:58.337Z,7.53
2019-03-10T03:25:27.713Z,7.50
2019-03-10T03:27:57.103Z,6.92
2019-03-10T03:30:26.465Z,7.80
2019-03-10T03:32:55.837Z,4.78
2019-03-10T03:35:49.586Z,6.83
2019-03-10T03:38:23.636Z,6.55
2019-03-10T03:43:33.434Z,6.53
2019-03-10T03:46:02.811Z,7.00
2019-03-10T03:48:32.531Z,7.65
2019-03-10T03:51:01.906Z,4.70
2019-03-10T03:53:31.276Z,6.60
2019-03-10T03:56:00.964Z,8.55
2019-03-10T03:58:30.347Z,9.88
2019-03-10T04:01:01.351Z,7.78
2019-03-10T04:03:30.727Z,9.43
2019-03-10T04:06:00.112Z,9.30
2019-03-10T04:08:29.543Z,7.17
2019-03-10T04:10:58.954Z,7.62
2019-03-10T04:13:28.321Z,8.55
2019-03-10T04:15:57.679Z,8.15
2019-03-10T04:18:27.421Z,8.70
2019-03-10T04:20:56.793Z,9.90
2019-03-10T04:23:26.178Z,5.75
2019-03-10T04:25:55.557Z,8.25
2019-03-10T04:28:24.926Z,5.78
2019-03-10T04:30:54.288Z,9.65
2019-03-10T04:33:23.670Z,10.18
2019-03-10T04:35:53.048Z,7.20
2019-03-10T04:38:31.128Z,8.83
2019-03-10T04:41:00.754Z,7.67
2019-03-10T04:43:30.126Z,8.05
2019-03-10T04:45:59.515Z,7.62
2019-03-10T04:48:28.966Z,10.35
2019-03-10T04:50:58.859Z,7.37
2019-03-10T04:53:28.294Z,9.00
2019-03-10T04:56:02.322Z,10.60
2019-03-10T04:58:33.360Z,9.88
2019-03-10T05:01:02.740Z,7.67
2019-03-10T05:03:32.416Z,9.08
2019-03-10T05:06:01.798Z,8.23
2019-03-10T05:08:31.170Z,8.23
2019-03-10T05:11:00.543Z,5.75
2019-03-10T05:13:29.907Z,7.30
2019-03-10T05:15:59.279Z,7.47
2019-03-10T05:18:29.027Z,7.22
2019-03-10T05:20:58.755Z,8.93
2019-03-10T05:23:33.513Z,7.47
2019-03-10T05:26:03.035Z,7.40
2019-03-10T05:28:39.212Z,7.72
2019-03-10T05:31:08.590Z,6.53
2019-03-10T05:33:38.010Z,8.70
2019-03-10T05:36:07.376Z,10.35
2019-03-10T05:38:36.735Z,6.37
2019-03-10T05:41:06.101Z,7.58
2019-03-10T05:43:35.478Z,12.28
2019-03-10T05:46:04.840Z,7.35
2019-03-10T05:48:34.214Z,9.95
2019-03-10T05:51:03.596Z,13.08
2019-03-10T05:53:33.485Z,8.18
2019-03-10T05:56:03.017Z,9.35
2019-03-10T05:58:32.383Z,6.28
2019-03-10T06:01:01.758Z,8.53
2019-03-10T06:03:31.147Z,9.93
2019-03-10T06:06:00.536Z,10.65
2019-03-10T06:08:29.911Z,9.25
2019-03-10T06:10:59.306Z,6.37
2019-03-10T06:13:28.686Z,9.58
2019-03-10T06:15:58.039Z,9.83
2019-03-10T06:18:27.869Z,8.58
2019-03-10T06:20:57.255Z,8.20
2019-03-10T06:23:26.617Z,8.13
2019-03-10T06:25:55.992Z,8.83
2019-03-10T06:28:25.369Z,6.87
2019-03-10T06:30:56.392Z,9.75
2019-03-10T06:33:25.903Z,6.05
2019-03-10T06:35:55.275Z,8.73
2019-03-10T06:38:24.651Z,10.05
2019-03-10T06:40:54.416Z,6.53
2019-03-10T06:43:23.790Z,11.08
2019-03-10T06:45:53.172Z,8.50
2019-03-10T06:48:22.546Z,9.70
2019-03-10T06:50:51.919Z,8.13
2019-03-10T06:53:21.315Z,10.25
2019-03-10T06:55:50.931Z,9.10
2019-03-10T06:58:20.330Z,10.53
2019-03-10T07:00:49.694Z,11.53
2019-03-10T07:03:19.657Z,11.25
2019-03-10T07:05:49.047Z,13.80
2019-03-10T07:08:18.414Z,8.53
2019-03-10T07:10:47.802Z,8.98
2019-03-10T07:13:17.185Z,6.58
2019-03-10T07:15:46.574Z,6.83
2019-03-10T07:18:16.079Z,5.60
2019-03-10T07:20:45.535Z,6.78
2019-03-10T07:23:16.381Z,8.40
2019-03-10T07:25:46.311Z,9.88
2019-03-10T07:28:17.322Z,7.33
2019-03-10T07:30:48.348Z,9.65
2019-03-10T07:33:31.394Z,8.58
2019-03-10T07:36:02.405Z,10.82
2019-03-10T07:38:33.415Z,7.30
2019-03-10T07:41:04.905Z,6.10
2019-03-10T07:43:44.650Z,8.65
2019-03-10T07:46:15.674Z,7.28
2019-03-10T07:48:46.714Z,10.90
2019-03-10T07:51:22.319Z,10.68
2019-03-10T07:53:53.328Z,11.22
2019-03-10T07:56:25.611Z,11.15
2019-03-10T07:59:09.170Z,10.08
2019-03-10T08:01:40.186Z,8.57
2019-03-10T08:04:26.009Z,8.28
2019-03-10T08:06:57.050Z,7.20
2019-03-10T08:09:33.688Z,6.55
2019-03-10T08:12:10.666Z,8.73
2019-03-10T08:14:48.025Z,10.10
2019-03-10T08:17:21.926Z,9.58
2019-03-10T08:19:55.849Z,9.50
2019-03-10T08:22:32.565Z,10.23
2019-03-10T08:25:06.531Z,8.03
2019-03-10T08:27:37.551Z,10.63
2019-03-10T08:30:11.725Z,8.88
2019-03-10T08:32:54.923Z,7.12
2019-03-10T08:35:28.322Z,10.13
2019-03-10T08:38:02.234Z,7.22
2019-03-10T08:40:36.191Z,8.88
2019-03-10T08:43:07.279Z,6.17
2019-03-10T08:45:50.364Z,10.50
2019-03-10T08:48:21.689Z,7.83
2019-03-10T08:50:58.949Z,8.75
2019-03-10T08:53:48.147Z,12.35
2019-03-10T08:56:19.183Z,9.20
2019-03-10T08:58:50.400Z,10.85
2019-03-10T09:01:37.492Z,10.75
2019-03-10T09:04:20.524Z,9.05
2019-03-10T09:06:57.297Z,7.70
2019-03-10T09:09:28.317Z,6.87
2019-03-10T09:11:59.334Z,11.63
2019-03-10T09:14:46.744Z,9.80
2019-03-10T09:17:23.493Z,7.47
2019-03-10T09:19:57.212Z,7.75
2019-03-10T09:25:30.158Z,9.57
2019-03-10T09:28:04.110Z,7.83
2019-03-10T09:30:35.130Z,10.80
2019-03-10T09:33:15.359Z,6.78
2019-03-10T09:35:46.423Z,8.20
2019-03-10T09:38:20.576Z,8.13
2019-03-10T09:40:57.759Z,7.17
2019-03-10T09:43:28.789Z,11.73
2019-03-10T09:46:05.496Z,8.48
2019-03-10T09:48:48.362Z,6.58
2019-03-10T09:51:19.391Z,8.80
2019-03-10T09:54:06.485Z,7.90
2019-03-10T09:56:43.603Z,7.97
2019-03-10T09:59:15.041Z,9.55
2019-03-10T10:01:46.044Z,8.60
2019-03-10T10:04:29.278Z,10.30
2019-03-10T10:07:02.991Z,6.77
2019-03-10T10:09:40.015Z,10.38
2019-03-10T10:12:13.599Z,8.18
2019-03-10T10:15:01.880Z,7.83
2019-03-10T10:17:49.269Z,9.18
2019-03-10T10:20:26.802Z,11.18
2019-03-10T10:23:07.260Z,9.15
2019-03-10T10:25:44.098Z,11.57
2019-03-10T10:28:31.200Z,10.30
2019-03-10T10:31:05.180Z,7.17
2019-03-10T10:33:39.114Z,9.68
2019-03-10T10:36:10.113Z,8.33
2019-03-10T10:38:41.170Z,8.58
2019-03-10T10:41:28.311Z,11.40
2019-03-10T10:44:05.051Z,8.03
2019-03-10T10:46:38.793Z,10.35
2019-03-10T10:49:26.532Z,11.40
2019-03-10T10:52:00.167Z,10.93
2019-03-10T10:54:40.430Z,10.45
2019-03-10T10:57:20.627Z,12.10
2019-03-10T11:00:00.633Z,11.50
2019-03-10T11:02:32.108Z,8.70
2019-03-10T11:05:03.119Z,11.85
2019-03-10T11:07:34.550Z,12.20
2019-03-10T11:10:11.862Z,13.00
2019-03-10T11:12:45.525Z,8.78
2019-03-10T11:15:35.030Z,16.48
2019-03-10T11:18:09.706Z,9.03
2019-03-10T11:20:41.671Z,10.03
2019-03-10T11:23:13.145Z,11.33
2019-03-10T11:25:46.851Z,10.90
2019-03-10T11:28:20.543Z,10.98
2019-03-10T11:30:51.560Z,7.55
2019-03-10T11:33:22.571Z,8.18
2019-03-10T11:35:56.500Z,7.28
2019-03-10T11:38:30.743Z,8.43
2019-03-10T11:43:48.210Z,6.17
2019-03-10T11:46:32.669Z,7.50
2019-03-10T11:49:03.685Z,8.85
2019-03-10T11:51:34.701Z,12.93
2019-03-10T11:54:05.699Z,11.73
2019-03-10T11:56:53.203Z,8.58
2019-03-10T11:59:30.096Z,9.15
2019-03-10T12:02:16.773Z,6.97
2019-03-10T12:04:48.311Z,12.35
2019-03-10T12:07:25.372Z,7.12
2019-03-10T12:09:54.752Z,9.15
2019-03-10T12:12:24.379Z,6.00
2019-03-10T12:14:53.815Z,4.17
2019-03-10T12:17:23.208Z,4.78
2019-03-10T12:19:52.552Z,5.35
2019-03-10T12:22:21.928Z,3.45
2019-03-10T12:24:51.306Z,5.12
2019-03-10T12:27:20.672Z,5.97
2019-03-10T12:29:50.055Z,5.55
2019-03-10T12:32:19.443Z,4.90
2019-03-10T12:34:48.804Z,5.75
2019-03-10T12:37:18.462Z,7.42
2019-03-10T12:39:47.826Z,4.03
2019-03-10T12:42:17.201Z,5.95
2019-03-10T12:44:46.579Z,6.85
2019-03-10T12:47:15.941Z,5.30
2019-03-10T12:49:45.334Z,3.22
2019-03-10T12:52:15.537Z,5.08
2019-03-10T12:54:44.864Z,3.75
2019-03-10T12:57:14.238Z,3.65
2019-03-10T12:59:44.100Z,5.05
2019-03-10T13:02:13.481Z,4.17
2019-03-10T13:04:42.850Z,3.47
2019-03-10T13:07:12.606Z,4.97
2019-03-10T13:09:41.981Z,7.83
2019-03-10T13:12:11.345Z,4.55
2019-03-10T13:14:40.722Z,5.53
2019-03-10T13:17:10.169Z,4.42
2019-03-10T13:19:39.557Z,5.37
2019-03-10T13:22:09.509Z,3.33
2019-03-10T13:24:38.881Z,5.65
2019-03-10T13:27:08.250Z,4.87
2019-03-10T13:29:37.662Z,5.55
2019-03-10T13:32:07.042Z,6.37
2019-03-10T13:34:36.398Z,3.98
2019-03-10T13:37:05.783Z,6.67
2019-03-10T13:39:35.159Z,5.78
2019-03-10T13:42:04.526Z,5.03
2019-03-10T13:44:34.199Z,9.90
2019-03-10T13:47:03.569Z,7.53
2019-03-10T13:49:32.963Z,8.10
2019-03-10T13:52:02.309Z,6.12
2019-03-10T13:54:31.697Z,5.83
2019-03-10T13:57:01.064Z,5.72
2019-03-10T13:59:30.435Z,5.12
2019-03-10T14:01:59.839Z,6.53
2019-03-10T14:04:29.196Z,7.53
2019-03-10T14:06:59.041Z,4.87
2019-03-10T14:09:28.810Z,7.58
2019-03-10T14:11:58.185Z,6.30
2019-03-10T14:14:27.551Z,14.05
2019-03-10T14:16:56.920Z,8.03
2019-03-10T14:19:26.287Z,7.92
2019-03-10T14:21:55.668Z,7.60
2019-03-10T14:24:25.062Z,7.20
2019-03-10T14:26:54.428Z,6.67
2019-03-10T14:29:23.841Z,5.10
2019-03-10T14:31:53.201Z,8.68
2019-03-10T14:34:22.924Z,6.28
2019-03-10T14:36:52.306Z,6.30
2019-03-10T14:39:21.674Z,8.20
2019-03-10T14:41:51.049Z,6.28
2019-03-10T14:44:20.442Z,6.10
2019-03-10T14:46:49.888Z,9.18
2019-03-10T14:49:23.585Z,9.63
2019-03-10T14:51:51.036Z,7.22
2019-03-10T14:54:20.392Z,9.33
2019-03-10T14:56:49.763Z,10.00
2019-03-10T14:59:19.141Z,8.08
2019-03-10T15:01:48.523Z,6.15
2019-03-10T15:04:17.903Z,8.30
2019-03-10T15:06:47.290Z,6.80
2019-03-10T15:09:16.662Z,7.33
2019-03-10T15:11:47.873Z,5.75
2019-03-10T15:14:17.708Z,6.53
2019-03-10T15:16:47.069Z,6.50
2019-03-10T15:19:16.448Z,9.45
2019-03-10T15:21:45.835Z,9.78
2019-03-10T15:24:15.197Z,8.45
2019-03-10T15:26:45.949Z,7.28
2019-03-10T15:29:15.612Z,6.85
2019-03-10T15:31:44.981Z,7.97
2019-03-10T15:34:14.341Z,9.13
2019-03-10T15:36:43.755Z,9.55
2019-03-10T15:39:13.161Z,9.50
2019-03-10T15:41:42.533Z,5.25
2019-03-10T15:44:11.923Z,5.20
2019-03-10T15:46:41.297Z,7.72
2019-03-10T15:49:10.674Z,8.23
2019-03-10T15:51:40.056Z,7.58
2019-03-10T15:54:09.423Z,6.28
2019-03-10T15:56:38.794Z,7.97
2019-03-10T15:59:08.734Z,7.05
2019-03-10T16:01:38.118Z,7.22
2019-03-10T16:04:19.808Z,5.97
2019-03-10T16:06:49.170Z,6.08
2019-03-10T16:09:18.536Z,8.00
2019-03-10T16:11:47.933Z,7.15
2019-03-10T16:14:17.639Z,6.03
2019-03-10T16:16:47.027Z,7.42
2019-03-10T16:19:16.946Z,7.55
2019-03-10T16:21:46.307Z,5.10
2019-03-10T16:24:15.664Z,5.25
2019-03-10T16:26:45.071Z,3.37
2019-03-10T16:29:14.447Z,3.70
2019-03-10T16:31:43.817Z,4.37
2019-03-10T16:34:13.199Z,7.67
2019-03-10T16:36:42.567Z,7.78
2019-03-10T16:39:11.940Z,6.10
2019-03-10T16:41:41.381Z,3.85
2019-03-10T16:44:10.758Z,4.92
2019-03-10T16:46:40.115Z,3.47
2019-03-10T16:49:09.492Z,2.55
2019-03-10T16:51:38.870Z,3.95
2019-03-10T16:54:08.233Z,4.90
2019-03-10T16:56:37.633Z,6.33
2019-03-10T16:59:06.989Z,7.33
2019-03-10T17:01:36.360Z,4.60
2019-03-10T17:04:06.092Z,4.67
2019-03-10T17:06:35.454Z,3.58
2019-03-10T17:09:16.196Z,5.35
2019-03-10T17:11:45.582Z,2.37
2019-03-10T17:14:14.939Z,3.35
2019-03-10T17:16:44.860Z,3.27
2019-03-10T17:19:14.217Z,5.05
2019-03-10T17:21:43.590Z,1.77
2019-03-10T17:24:13.513Z,2.00
2019-03-10T17:26:43.187Z,2.45
2019-03-10T17:29:12.567Z,3.15
2019-03-10T17:31:42.009Z,1.57
2019-03-10T17:34:11.393Z,3.37
2019-03-10T17:36:40.793Z,1.85
2019-03-10T17:39:10.372Z,2.00
2019-03-10T17:41:39.733Z,1.77
2019-03-10T17:44:09.095Z,1.62
2019-03-10T17:46:38.501Z,2.25
2019-03-10T17:49:07.883Z,2.27
2019-03-10T17:51:37.244Z,2.62
2019-03-10T17:54:06.620Z,2.98
2019-03-10T17:56:35.983Z,3.30
2019-03-10T17:59:05.353Z,2.98
2019-03-10T18:01:34.725Z,3.37
2019-03-10T18:04:04.152Z,2.33
2019-03-10T18:06:33.517Z,3.75
2019-03-10T18:09:02.941Z,4.45
2019-03-10T18:11:32.307Z,2.45
2019-03-10T18:14:01.680Z,1.05
2019-03-10T18:16:33.449Z,1.77
2019-03-10T18:19:02.642Z,3.22
2019-03-10T18:21:31.996Z,1.98
2019-03-10T18:24:01.371Z,2.12
2019-03-10T18:26:30.732Z,4.42
2019-03-10T18:29:00.127Z,2.60
2019-03-10T18:31:29.504Z,2.08
2019-03-10T18:33:58.856Z,2.35
2019-03-10T18:36:28.219Z,3.35
2019-03-10T18:38:57.599Z,3.25
2019-03-10T18:41:26.960Z,2.42
2019-03-10T18:43:56.328Z,1.95
2019-03-10T18:46:25.701Z,2.17
2019-03-10T18:48:55.086Z,2.12
2019-03-10T18:51:24.431Z,3.80
2019-03-10T18:53:53.838Z,2.75
2019-03-10T18:56:23.213Z,3.83
2019-03-10T18:58:52.569Z,6.70
2019-03-10T19:01:21.946Z,3.72
2019-03-10T19:03:51.298Z,5.53
2019-03-10T19:06:20.679Z,4.42
2019-03-10T19:08:50.071Z,4.42
2019-03-10T19:11:19.429Z,3.52
2019-03-10T19:13:48.783Z,3.17
2019-03-10T19:16:18.177Z,4.35
2019-03-10T19:18:47.538Z,4.10
2019-03-10T19:21:18.189Z,4.35
2019-03-10T19:23:47.543Z,3.75
2019-03-10T19:26:16.936Z,3.60
2019-03-10T19:28:46.263Z,4.05
2019-03-10T19:31:15.630Z,2.62
2019-03-10T19:33:44.992Z,2.80
2019-03-10T19:36:14.360Z,2.90
2019-03-10T19:38:43.770Z,3.58
2019-03-10T19:41:13.134Z,2.77
2019-03-10T19:43:42.491Z,3.90
2019-03-10T19:46:11.863Z,3.90
2019-03-10T19:48:41.220Z,4.37
2019-03-10T19:51:10.576Z,2.72
2019-03-10T19:53:39.954Z,3.00
2019-03-10T19:56:09.303Z,3.50
2019-03-10T19:58:38.656Z,3.37
2019-03-10T20:01:08.336Z,1.82
2019-03-10T20:03:38.048Z,3.52
2019-03-10T20:06:07.420Z,2.40
2019-03-10T20:08:37.218Z,2.85
2019-03-10T20:11:06.600Z,3.12
2019-03-10T20:13:35.956Z,2.58
2019-03-10T20:16:05.318Z,2.83
2019-03-10T20:18:34.670Z,2.30
2019-03-10T20:21:04.041Z,3.37
2019-03-10T20:23:33.709Z,2.98
2019-03-10T20:26:03.084Z,2.85
2019-03-10T20:28:32.436Z,2.00
2019-03-10T20:31:01.804Z,2.37
2019-03-10T20:33:31.168Z,2.35
2019-03-10T20:36:00.528Z,3.67
2019-03-10T20:38:29.894Z,2.08
2019-03-10T20:40:59.248Z,2.90
2019-03-10T20:43:28.597Z,3.15
2019-03-10T20:45:57.992Z,2.87
2019-03-10T20:48:27.363Z,3.37
2019-03-10T20:50:56.713Z,3.60
2019-03-10T20:53:26.091Z,2.50
2019-03-10T20:55:55.451Z,3.00
2019-03-10T20:58:24.811Z,2.92
2019-03-10T21:00:54.162Z,4.05
2019-03-10T21:03:23.527Z,2.87
2019-03-10T21:05:52.889Z,3.60
2019-03-10T21:08:22.541Z,4.45
2019-03-10T21:10:51.896Z,3.85
2019-03-10T21:13:21.246Z,3.17
2019-03-10T21:15:50.619Z,2.20
2019-03-10T21:18:20.019Z,4.40
2019-03-10T21:20:49.379Z,2.65
2019-03-10T21:23:18.736Z,2.20
2019-03-10T21:25:48.316Z,4.50
2019-03-10T21:28:17.673Z,4.50
2019-03-10T21:30:47.062Z,6.20
2019-03-10T21:33:16.431Z,4.35
2019-03-10T21:35:45.781Z,5.70
2019-03-10T21:38:15.155Z,4.65
2019-03-10T21:40:44.516Z,5.03
2019-03-10T21:43:13.872Z,5.97
2019-03-10T21:45:43.316Z,4.08
2019-03-10T21:48:12.671Z,4.67
2019-03-10T21:50:42.027Z,4.62
2019-03-10T21:53:11.413Z,4.62
2019-03-10T21:55:40.764Z,5.70
2019-03-10T21:58:10.133Z,7.67
2019-03-10T22:00:39.849Z,8.53
2019-03-10T22:03:09.217Z,9.15
2019-03-10T22:05:38.593Z,5.75
2019-03-10T22:08:08.260Z,7.17
2019-03-10T22:10:37.619Z,7.83
2019-03-10T22:13:07.020Z,8.68
2019-03-10T22:15:41.594Z,8.70
2019-03-10T22:18:08.014Z,6.15
2019-03-10T22:20:37.391Z,10.40
2019-03-10T22:23:06.836Z,9.15
2019-03-10T22:25:36.195Z,8.38
2019-03-10T22:28:05.898Z,8.70
2019-03-10T22:30:35.290Z,8.05
2019-03-10T22:33:04.667Z,10.35
2019-03-10T22:35:34.029Z,11.48
2019-03-10T22:38:03.719Z,15.18
2019-03-10T22:40:33.078Z,16.93
2019-03-10T22:43:02.442Z,12.70
2019-03-10T22:45:31.842Z,14.00
2019-03-10T22:48:01.217Z,10.55
2019-03-10T22:50:30.580Z,11.75
2019-03-10T22:52:59.950Z,12.15
2019-03-10T22:55:29.320Z,9.95
2019-03-10T22:57:58.766Z,14.35
2019-03-10T23:00:45.024Z,16.97
2019-03-10T23:03:14.476Z,12.00
2019-03-10T23:05:43.828Z,19.80
2019-03-10T23:08:13.215Z,13.90
2019-03-10T23:10:42.589Z,13.20
2019-03-10T23:13:11.958Z,15.95
2019-03-10T23:15:41.338Z,14.78
2019-03-10T23:18:10.713Z,16.10
2019-03-10T23:20:40.118Z,12.47
2019-03-10T23:23:09.966Z,13.45
2019-03-10T23:25:39.328Z,17.25
2019-03-10T23:28:08.756Z,13.30
2019-03-10T23:30:38.495Z,17.77
2019-03-10T23:33:07.865Z,14.10
2019-03-10T23:35:37.270Z,18.10
2019-03-10T23:38:07.281Z,17.55
2019-03-10T23:40:36.669Z,10.80
2019-03-10T23:43:06.039Z,13.65
2019-03-10T23:45:35.782Z,15.45
2019-03-10T23:48:05.133Z,12.68
2019-03-10T23:50:34.507Z,14.83
2019-03-10T23:53:03.884Z,14.90
2019-03-10T23:55:33.668Z,10.48
2019-03-10T23:58:03.032Z,14.53
